createdAt,value
2022-09-28T00:00:57.455Z,25.67
2022-09-28T00:03:24.678Z,27.13
2022-09-28T00:05:51.830Z,28.08
2022-09-28T00:08:19.018Z,28.05
2022-09-28T00:10:55.025Z,28.85
2022-09-28T00:13:22.162Z,28.35
2022-09-28T00:15:49.379Z,28.20
2022-09-28T00:18:16.732Z,29.40
2022-09-28T00:20:43.915Z,28.35
2022-09-28T00:23:11.055Z,27.42
2022-09-28T00:25:38.242Z,26.73
2022-09-28T00:28:06.456Z,28.33
2022-09-28T00:30:33.586Z,26.65
2022-09-28T00:33:00.872Z,27.70
2022-09-28T00:35:28.023Z,27.92
2022-09-28T00:37:55.189Z,28.35
2022-09-28T00:40:22.458Z,27.42
2022-09-28T00:42:49.642Z,27.65
2022-09-28T00:45:16.878Z,26.40
2022-09-28T00:47:49.608Z,26.83
2022-09-28T00:50:29.011Z,26.45
2022-09-28T00:53:02.563Z,25.63
2022-09-28T00:55:41.191Z,26.35
2022-09-28T00:58:09.833Z,27.08
2022-09-28T01:00:37.350Z,25.73
2022-09-28T01:03:04.722Z,26.30
2022-09-28T01:05:32.507Z,27.67
2022-09-28T01:07:59.656Z,26.05
2022-09-28T01:10:28.541Z,26.88
2022-09-28T01:12:56.082Z,28.02
2022-09-28T01:15:25.100Z,28.02
2022-09-28T01:18:08.061Z,29.40
2022-09-28T01:20:40.938Z,26.50
2022-09-28T01:23:26.676Z,29.90
2022-09-28T01:25:55.315Z,27.52
2022-09-28T01:28:25.683Z,26.70
2022-09-28T01:31:22.495Z,29.02
2022-09-28T01:33:52.704Z,27.15
2022-09-28T01:36:32.304Z,28.48
2022-09-28T01:39:02.737Z,27.52
2022-09-28T01:41:31.657Z,28.00
2022-09-28T01:44:03.141Z,26.67
2022-09-28T01:46:36.881Z,26.73
2022-09-28T01:49:10.880Z,26.15
2022-09-28T01:51:41.810Z,26.90
2022-09-28T01:54:29.369Z,27.90
2022-09-28T01:56:59.934Z,26.55
2022-09-28T01:59:28.741Z,27.17
2022-09-28T02:02:07.254Z,26.52
2022-09-28T02:04:37.413Z,25.55
2022-09-28T02:07:08.489Z,26.05
2022-09-28T02:09:42.814Z,23.83
2022-09-28T02:12:16.995Z,24.77
2022-09-28T02:14:46.249Z,26.13
2022-09-28T02:17:13.685Z,24.75
2022-09-28T02:19:41.536Z,24.33
2022-09-28T02:22:11.750Z,24.95
2022-09-28T02:24:40.534Z,25.27
2022-09-28T02:27:19.958Z,24.98
2022-09-28T02:29:47.102Z,23.65
2022-09-28T02:32:14.470Z,24.05
2022-09-28T02:34:41.740Z,23.10
2022-09-28T02:37:08.931Z,24.05
2022-09-28T02:39:36.076Z,24.00
2022-09-28T02:42:14.597Z,23.38
2022-09-28T02:44:57.734Z,23.23
2022-09-28T02:47:33.499Z,22.52
2022-09-28T02:50:23.732Z,22.00
2022-09-28T02:53:00.323Z,23.38
2022-09-28T02:55:39.677Z,23.50
2022-09-28T02:58:21.985Z,24.55
2022-09-28T03:01:02.639Z,23.83
2022-09-28T03:03:53.012Z,22.63
2022-09-28T03:06:25.454Z,21.98
2022-09-28T03:08:59.692Z,23.95
2022-09-28T03:11:33.177Z,23.15
2022-09-28T03:14:01.061Z,23.10
2022-09-28T03:16:29.085Z,22.08
2022-09-28T03:18:56.246Z,23.05
2022-09-28T03:21:23.565Z,25.00
2022-09-28T03:23:50.689Z,25.23
2022-09-28T03:26:18.038Z,26.75
2022-09-28T03:28:45.324Z,28.38
2022-09-28T03:31:12.572Z,26.92
2022-09-28T03:33:39.793Z,27.08
2022-09-28T03:36:08.825Z,26.67
2022-09-28T03:38:36.032Z,27.40
2022-09-28T03:41:03.293Z,24.73
2022-09-28T03:43:30.937Z,26.55
2022-09-28T03:46:01.645Z,25.50
2022-09-28T03:48:32.327Z,24.70
2022-09-28T03:51:01.744Z,24.67
2022-09-28T03:53:29.826Z,24.65
2022-09-28T03:55:57.038Z,24.60
2022-09-28T03:58:24.427Z,24.55
2022-09-28T04:00:51.659Z,26.92
2022-09-28T04:03:18.907Z,25.40
2022-09-28T04:05:50.182Z,24.02
2022-09-28T04:08:17.337Z,24.95
2022-09-28T04:10:44.534Z,24.77
2022-09-28T04:13:12.070Z,23.92
2022-09-28T04:15:39.456Z,23.08
2022-09-28T04:18:10.906Z,26.33
2022-09-28T04:20:41.115Z,25.48
2022-09-28T04:23:08.436Z,25.48
2022-09-28T04:25:35.578Z,25.17
2022-09-28T04:28:21.485Z,24.67
2022-09-28T04:30:48.708Z,24.17
2022-09-28T04:33:15.886Z,24.63
2022-09-28T04:35:43.138Z,23.52
2022-09-28T04:38:10.297Z,24.52
2022-09-28T04:40:37.511Z,25.85
2022-09-28T04:43:04.947Z,25.23
2022-09-28T04:45:32.160Z,24.65
2022-09-28T04:47:59.353Z,25.13
2022-09-28T04:50:26.709Z,26.42
2022-09-28T04:52:53.838Z,24.23
2022-09-28T04:55:21.009Z,25.83
2022-09-28T04:57:48.286Z,24.77
2022-09-28T05:00:15.531Z,23.50
2022-09-28T05:02:42.718Z,25.42
2022-09-28T05:05:09.962Z,24.30
2022-09-28T05:07:37.101Z,23.80
2022-09-28T05:10:04.329Z,23.08
2022-09-28T05:12:31.565Z,24.75
2022-09-28T05:14:58.989Z,24.63
2022-09-28T05:17:26.190Z,23.33
2022-09-28T05:19:53.527Z,23.40
2022-09-28T05:22:20.942Z,23.20
2022-09-28T05:24:48.142Z,23.38
2022-09-28T05:27:15.600Z,22.77
2022-09-28T05:29:42.775Z,22.08
2022-09-28T05:32:09.972Z,22.65
2022-09-28T05:34:37.482Z,23.30
2022-09-28T05:37:04.748Z,22.30
2022-09-28T05:39:31.905Z,23.77
2022-09-28T05:41:59.170Z,22.92
2022-09-28T05:44:26.510Z,22.55
2022-09-28T05:46:54.783Z,25.52
2022-09-28T05:49:22.015Z,24.95
2022-09-28T05:51:49.250Z,24.02
2022-09-28T05:54:16.707Z,22.98
2022-09-28T05:56:44.246Z,25.00
2022-09-28T05:59:12.211Z,24.52
2022-09-28T06:01:39.452Z,22.17
2022-09-28T06:04:06.695Z,24.10
2022-09-28T06:06:35.665Z,23.30
2022-09-28T06:09:02.828Z,25.42
2022-09-28T06:11:30.172Z,24.80
2022-09-28T06:13:57.333Z,24.55
2022-09-28T06:16:24.527Z,24.33
2022-09-28T06:18:51.840Z,24.60
2022-09-28T06:21:19.039Z,26.25
2022-09-28T06:23:49.249Z,26.10
2022-09-28T06:26:17.380Z,23.65
2022-09-28T06:28:44.575Z,23.25
2022-09-28T06:31:11.852Z,22.40
2022-09-28T06:33:39.157Z,22.17
2022-09-28T06:36:06.427Z,21.50
2022-09-28T06:38:34.131Z,18.38
2022-09-28T06:41:01.386Z,18.33
2022-09-28T06:43:34.156Z,17.92
2022-09-28T06:46:03.160Z,18.33
2022-09-28T06:48:31.748Z,18.50
2022-09-28T06:50:58.985Z,16.67
2022-09-28T06:53:27.412Z,16.98
2022-09-28T06:55:55.143Z,15.90
2022-09-28T06:58:23.186Z,16.52
2022-09-28T07:00:53.777Z,15.82
2022-09-28T07:03:22.099Z,16.45
2022-09-28T07:05:50.264Z,16.83
2022-09-28T07:08:18.102Z,16.55
2022-09-28T07:10:48.922Z,15.95
2022-09-28T07:13:44.831Z,16.75
2022-09-28T07:16:04.630Z,15.45
2022-09-28T07:18:31.773Z,16.33
2022-09-28T07:20:59.446Z,15.63
2022-09-28T07:23:29.906Z,15.48
2022-09-28T07:25:58.240Z,14.63
2022-09-28T07:28:25.978Z,15.27
2022-09-28T07:30:53.305Z,15.95
2022-09-28T07:33:20.510Z,14.00
2022-09-28T07:35:52.238Z,13.80
2022-09-28T07:38:19.523Z,13.05
2022-09-28T07:41:05.277Z,15.50
2022-09-28T07:43:33.293Z,14.85
2022-09-28T07:46:00.521Z,14.13
2022-09-28T07:48:27.811Z,14.20
2022-09-28T07:50:56.881Z,12.52
2022-09-28T07:53:25.041Z,12.98
2022-09-28T07:55:55.997Z,12.52
2022-09-28T07:58:23.605Z,13.02
2022-09-28T08:00:50.905Z,12.98
2022-09-28T08:03:18.991Z,12.27
2022-09-28T08:05:47.523Z,13.45
2022-09-28T08:08:15.276Z,12.75
2022-09-28T08:10:47.135Z,12.35
2022-09-28T08:13:16.428Z,12.57
2022-09-28T08:15:43.640Z,12.38
2022-09-28T08:18:10.866Z,13.65
2022-09-28T08:20:57.352Z,13.40
2022-09-28T08:23:24.608Z,13.52
2022-09-28T08:25:55.164Z,13.60
2022-09-28T08:28:23.248Z,13.73
2022-09-28T08:30:50.861Z,13.35
2022-09-28T08:33:20.285Z,14.73
2022-09-28T08:35:47.643Z,14.52
2022-09-28T08:38:15.352Z,13.65
2022-09-28T08:40:51.403Z,20.30
2022-09-28T08:43:25.253Z,13.38
2022-09-28T08:45:52.995Z,13.68
2022-09-28T08:48:41.670Z,13.10
2022-09-28T08:51:15.665Z,12.77
2022-09-28T08:54:11.027Z,11.73
2022-09-28T08:56:45.686Z,11.40
2022-09-28T08:59:15.242Z,10.48
2022-09-28T09:01:45.533Z,11.50
2022-09-28T09:04:13.120Z,11.25
2022-09-28T09:06:43.337Z,12.55
2022-09-28T09:09:26.137Z,12.17
2022-09-28T09:11:57.337Z,12.30
2022-09-28T09:14:57.042Z,12.52
2022-09-28T09:17:26.958Z,12.77
2022-09-28T09:19:55.357Z,13.45
2022-09-28T09:22:27.493Z,13.18
2022-09-28T09:25:14.679Z,13.48
2022-09-28T09:28:00.122Z,12.40
2022-09-28T09:30:31.292Z,12.45
2022-09-28T09:33:25.250Z,11.85
2022-09-28T09:35:52.368Z,11.63
2022-09-28T09:38:28.565Z,11.07
2022-09-28T09:41:07.837Z,11.15
2022-09-28T09:43:38.526Z,12.10
2022-09-28T09:46:05.760Z,13.85
2022-09-28T09:48:45.332Z,12.25
2022-09-28T09:51:18.267Z,12.63
2022-09-28T09:53:49.402Z,11.40
2022-09-28T09:56:28.129Z,11.88
2022-09-28T09:58:57.525Z,10.55
2022-09-28T10:01:30.734Z,11.82
2022-09-28T10:03:59.186Z,11.55
2022-09-28T10:06:28.905Z,11.70
2022-09-28T10:09:07.193Z,12.38
2022-09-28T10:11:37.286Z,11.65
2022-09-28T10:14:06.712Z,13.80
2022-09-28T10:16:34.166Z,12.50
2022-09-28T10:19:01.655Z,12.88
2022-09-28T10:21:29.677Z,11.95
2022-09-28T10:23:59.285Z,12.45
2022-09-28T10:26:29.053Z,12.13
2022-09-28T10:28:58.597Z,11.70
2022-09-28T10:31:43.231Z,12.80
2022-09-28T10:34:14.932Z,12.55
2022-09-28T10:36:47.751Z,12.60
2022-09-28T10:39:26.937Z,13.60
2022-09-28T10:41:54.558Z,13.30
2022-09-28T10:44:22.866Z,13.23
2022-09-28T10:47:01.079Z,13.18
2022-09-28T10:49:28.638Z,12.60
2022-09-28T10:51:56.599Z,12.85
2022-09-28T10:54:25.596Z,11.98
2022-09-28T10:56:53.828Z,12.48
2022-09-28T10:59:30.058Z,12.75
2022-09-28T11:02:07.874Z,11.98
2022-09-28T11:04:42.496Z,12.85
2022-09-28T11:07:24.828Z,13.30
2022-09-28T11:09:52.848Z,12.93
2022-09-28T11:12:24.698Z,13.63
2022-09-28T11:14:57.275Z,13.68
2022-09-28T11:17:29.255Z,14.00
2022-09-28T11:19:57.684Z,13.68
2022-09-28T11:22:29.053Z,14.43
2022-09-28T11:25:15.335Z,13.68
2022-09-28T11:27:42.699Z,14.98
2022-09-28T11:30:25.036Z,16.33
2022-09-28T11:32:53.222Z,14.90
2022-09-28T11:35:25.589Z,15.43
2022-09-28T11:37:52.702Z,14.50
2022-09-28T11:40:26.004Z,15.32
2022-09-28T11:43:08.089Z,16.15
2022-09-28T11:45:54.146Z,14.85
2022-09-28T11:48:45.283Z,15.07
2022-09-28T11:51:17.857Z,13.07
2022-09-28T11:53:56.407Z,13.35
2022-09-28T11:56:38.924Z,11.77
2022-09-28T11:59:15.021Z,13.25
2022-09-28T12:01:53.831Z,13.35
2022-09-28T12:04:20.961Z,13.55
2022-09-28T12:06:52.631Z,13.13
2022-09-28T12:09:28.405Z,12.73
2022-09-28T12:11:59.297Z,13.63
2022-09-28T12:14:31.582Z,14.02
2022-09-28T12:17:07.772Z,14.02
2022-09-28T12:19:39.588Z,13.43
2022-09-28T12:22:24.377Z,13.45
2022-09-28T12:24:53.355Z,13.82
2022-09-28T12:27:20.474Z,14.57
2022-09-28T12:29:59.428Z,13.07
2022-09-28T12:32:26.595Z,14.32
2022-09-28T12:34:53.885Z,15.32
2022-09-28T12:37:21.049Z,15.15
2022-09-28T12:40:07.272Z,16.60
2022-09-28T12:42:53.275Z,15.10
2022-09-28T12:45:47.905Z,16.00
2022-09-28T12:48:36.383Z,17.27
2022-09-28T12:51:12.740Z,17.27
2022-09-28T12:53:58.717Z,17.73
2022-09-28T12:56:40.888Z,17.52
2022-09-28T12:59:19.661Z,17.27
2022-09-28T13:02:21.681Z,17.85
2022-09-28T13:04:51.830Z,18.95
2022-09-28T13:07:21.805Z,19.40
2022-09-28T13:10:11.194Z,19.13
2022-09-28T13:12:49.824Z,18.95
2022-09-28T13:15:25.015Z,20.48
2022-09-28T13:17:58.497Z,18.50
2022-09-28T13:20:25.721Z,18.33
2022-09-28T13:22:56.407Z,19.35
2022-09-28T13:25:26.032Z,20.60
2022-09-28T13:27:55.930Z,19.83
2022-09-28T13:30:23.206Z,18.85
2022-09-28T13:32:50.906Z,18.60
2022-09-28T13:35:22.241Z,19.45
2022-09-28T13:38:09.394Z,18.48
2022-09-28T13:41:02.964Z,19.95
2022-09-28T13:43:32.970Z,19.00
2022-09-28T13:46:03.239Z,20.15
2022-09-28T13:49:05.900Z,20.15
2022-09-28T13:51:42.865Z,19.85
2022-09-28T13:54:25.004Z,18.60
2022-09-28T13:56:52.133Z,17.88
2022-09-28T13:59:27.426Z,19.05
2022-09-28T14:02:00.725Z,18.42
2022-09-28T14:04:50.136Z,18.23
2022-09-28T14:07:21.666Z,17.77
2022-09-28T14:09:50.081Z,18.80
2022-09-28T14:12:29.353Z,16.35
2022-09-28T14:14:56.836Z,14.23
2022-09-28T14:17:23.960Z,15.93
2022-09-28T14:19:56.790Z,14.85
2022-09-28T14:22:42.457Z,14.93
2022-09-28T14:25:21.874Z,13.80
2022-09-28T14:27:49.060Z,13.93
2022-09-28T14:30:16.324Z,14.15
2022-09-28T14:32:49.948Z,14.73
2022-09-28T14:35:18.852Z,13.82
2022-09-28T14:38:07.681Z,14.75
2022-09-28T14:41:12.811Z,14.25
2022-09-28T14:43:46.074Z,14.60
2022-09-28T14:46:19.091Z,16.13
2022-09-28T14:48:50.567Z,14.50
2022-09-28T14:51:26.969Z,14.88
2022-09-28T14:53:55.123Z,14.93
2022-09-28T14:56:22.591Z,14.63
2022-09-28T14:58:55.827Z,15.98
2022-09-28T15:01:24.825Z,16.33
2022-09-28T15:03:54.095Z,15.82
2022-09-28T15:06:24.971Z,15.18
2022-09-28T15:08:52.134Z,16.88
2022-09-28T15:11:22.661Z,15.93
2022-09-28T15:13:53.357Z,17.42
2022-09-28T15:16:24.271Z,18.23
2022-09-28T15:19:03.643Z,18.20
2022-09-28T15:21:41.610Z,17.88
2022-09-28T15:24:29.159Z,18.80
2022-09-28T15:26:56.796Z,18.90
2022-09-28T15:29:24.109Z,18.27
2022-09-28T15:31:54.527Z,20.10
2022-09-28T15:34:54.506Z,20.92
2022-09-28T15:37:22.225Z,18.95
2022-09-28T15:39:53.371Z,20.02
2022-09-28T15:45:01.283Z,20.45
2022-09-28T15:47:29.689Z,21.58
2022-09-28T15:50:05.455Z,21.05
2022-09-28T15:52:47.204Z,23.23
2022-09-28T15:55:32.418Z,23.23
2022-09-28T15:58:17.132Z,22.70
2022-09-28T16:00:48.280Z,24.10
2022-09-28T16:05:42.969Z,24.95
2022-09-28T16:08:24.315Z,25.92
2022-09-28T16:10:56.989Z,27.45
2022-09-28T16:13:24.449Z,26.65
2022-09-28T16:15:57.992Z,27.80
2022-09-28T16:18:26.159Z,28.33
2022-09-28T16:20:54.274Z,27.73
2022-09-28T16:23:24.208Z,28.25
2022-09-28T16:25:59.767Z,28.88
2022-09-28T16:28:39.306Z,29.20
2022-09-28T16:31:08.101Z,29.52
2022-09-28T16:33:40.651Z,31.08
2022-09-28T16:36:12.528Z,30.05
2022-09-28T16:38:39.726Z,28.15
2022-09-28T16:41:07.099Z,30.45
2022-09-28T16:43:36.706Z,29.83
2022-09-28T16:46:09.452Z,29.45
2022-09-28T16:48:39.745Z,30.23
2022-09-28T16:51:06.958Z,29.97
2022-09-28T16:53:53.078Z,31.33
2022-09-28T16:56:20.406Z,29.73
2022-09-28T16:58:49.411Z,30.40
2022-09-28T17:01:16.677Z,30.55
2022-09-28T17:03:46.884Z,30.45
2022-09-28T17:06:14.586Z,31.02
2022-09-28T17:08:43.125Z,30.58
2022-09-28T17:11:19.239Z,31.20
2022-09-28T17:13:49.979Z,33.38
2022-09-28T17:16:18.633Z,31.65
2022-09-28T17:18:46.361Z,32.47
2022-09-28T17:21:16.017Z,32.47
2022-09-28T17:23:44.031Z,31.23
2022-09-28T17:26:24.294Z,30.88
2022-09-28T17:28:51.495Z,24.75
2022-09-28T17:31:18.732Z,18.45
2022-09-28T17:33:46.290Z,14.57
2022-09-28T17:36:18.095Z,13.73
2022-09-28T17:38:45.856Z,10.27
2022-09-28T17:41:18.064Z,8.82
2022-09-28T17:43:47.520Z,7.32
2022-09-28T17:46:35.327Z,6.60
2022-09-28T17:49:04.320Z,6.38
2022-09-28T17:51:35.192Z,5.78
2022-09-28T17:54:02.657Z,6.38
2022-09-28T17:56:32.503Z,5.80
2022-09-28T17:59:04.938Z,5.03
2022-09-28T18:01:35.377Z,5.07
2022-09-28T18:04:03.809Z,5.40
2022-09-28T18:06:33.721Z,5.43
2022-09-28T18:09:02.770Z,5.32
2022-09-28T18:11:30.464Z,5.55
2022-09-28T18:13:57.755Z,6.07
2022-09-28T18:16:26.071Z,6.25
2022-09-28T18:18:53.242Z,6.65
2022-09-28T18:21:20.534Z,5.93
2022-09-28T18:23:47.665Z,6.97
2022-09-28T18:26:16.759Z,6.95
2022-09-28T18:28:43.976Z,7.40
2022-09-28T18:31:15.598Z,8.07
2022-09-28T18:33:43.365Z,7.95
2022-09-28T18:36:10.789Z,7.65
2022-09-28T18:38:38.610Z,7.45
2022-09-28T18:41:08.847Z,7.22
2022-09-28T18:43:36.589Z,7.00
2022-09-28T18:46:07.735Z,7.15
2022-09-28T18:51:03.661Z,5.95
2022-09-28T18:53:34.719Z,6.57
2022-09-28T18:56:06.197Z,6.97
2022-09-28T18:58:35.171Z,6.85
2022-09-28T19:01:28.473Z,6.88
2022-09-28T19:03:54.070Z,6.93
2022-09-28T19:06:21.472Z,7.75
2022-09-28T19:08:52.798Z,7.47
2022-09-28T19:13:47.183Z,8.35
2022-09-28T19:16:18.373Z,7.60
2022-09-28T19:21:13.878Z,7.40
2022-09-28T19:23:44.687Z,7.63
2022-09-28T19:26:15.239Z,6.88
2022-09-28T19:28:42.433Z,7.07
2022-09-28T19:31:10.027Z,8.07
2022-09-28T19:33:38.082Z,6.63
2022-09-28T19:36:09.811Z,7.03
2022-09-28T19:38:38.423Z,7.05
2022-09-28T19:41:09.607Z,6.45
2022-09-28T19:43:37.136Z,6.88
2022-09-28T19:46:06.459Z,5.90
2022-09-28T19:48:35.376Z,7.25
2022-09-28T19:51:04.741Z,7.05
2022-09-28T19:53:33.682Z,7.75
2022-09-28T19:56:05.600Z,7.70
2022-09-28T19:58:34.823Z,8.20
2022-09-28T20:01:05.489Z,8.70
2022-09-28T20:03:32.855Z,8.30
2022-09-28T20:06:00.651Z,7.90
2022-09-28T20:08:30.018Z,7.22
2022-09-28T20:10:59.627Z,7.45
2022-09-28T20:13:31.694Z,8.82
2022-09-28T20:16:06.645Z,9.10
2022-09-28T20:18:38.644Z,8.00
2022-09-28T20:21:06.709Z,7.70
2022-09-28T20:23:37.334Z,9.07
2022-09-28T20:26:05.251Z,8.07
2022-09-28T20:28:32.940Z,9.13
2022-09-28T20:31:06.871Z,8.73
2022-09-28T20:33:34.543Z,8.48
2022-09-28T20:36:08.546Z,9.15
2022-09-28T20:38:40.432Z,8.40
2022-09-28T20:41:11.961Z,8.27
2022-09-28T20:43:40.148Z,9.68
2022-09-28T20:46:08.613Z,9.40
2022-09-28T20:48:35.878Z,8.95
2022-09-28T20:51:04.432Z,9.55
2022-09-28T20:53:32.261Z,8.15
2022-09-28T20:56:03.609Z,8.85
2022-09-28T20:58:31.168Z,9.23
2022-09-28T21:01:08.321Z,8.23
2022-09-28T21:03:35.913Z,7.93
2022-09-28T21:06:03.634Z,8.43
2022-09-28T21:08:31.223Z,7.40
2022-09-28T21:10:58.927Z,7.47
2022-09-28T21:13:26.792Z,8.32
2022-09-28T21:15:54.192Z,7.90
2022-09-28T21:18:21.495Z,8.05
2022-09-28T21:20:49.735Z,8.73
2022-09-28T21:23:21.544Z,7.88
2022-09-28T21:25:51.202Z,8.70
2022-09-28T21:28:18.506Z,8.23
2022-09-28T21:30:46.148Z,9.40
2022-09-28T21:33:13.305Z,9.25
2022-09-28T21:35:40.585Z,10.30
2022-09-28T21:38:07.754Z,9.88
2022-09-28T21:40:34.973Z,10.43
2022-09-28T21:43:02.240Z,10.85
2022-09-28T21:45:29.416Z,10.85
2022-09-28T21:47:56.552Z,10.10
2022-09-28T21:50:24.773Z,10.85
2022-09-28T21:52:52.675Z,11.15
2022-09-28T21:55:20.773Z,12.07
2022-09-28T21:57:48.333Z,12.30
2022-09-28T22:00:16.599Z,12.98
2022-09-28T22:02:44.151Z,12.45
2022-09-28T22:05:12.094Z,11.98
2022-09-28T22:07:40.209Z,9.65
2022-09-28T22:10:08.286Z,9.93
2022-09-28T22:12:35.554Z,9.43
2022-09-28T22:15:02.715Z,10.15
2022-09-28T22:17:29.967Z,10.30
2022-09-28T22:19:57.331Z,9.32
2022-09-28T22:22:28.976Z,9.45
2022-09-28T22:24:56.395Z,9.57
2022-09-28T22:27:24.216Z,9.38
2022-09-28T22:29:51.787Z,8.57
2022-09-28T22:32:19.001Z,8.10
2022-09-28T22:34:46.347Z,8.60
2022-09-28T22:37:13.492Z,8.18
2022-09-28T22:39:41.136Z,8.35
2022-09-28T22:42:08.739Z,7.82
2022-09-28T22:44:35.983Z,7.90
2022-09-28T22:47:03.555Z,8.63
2022-09-28T22:49:31.738Z,8.30
2022-09-28T22:51:58.875Z,8.23
2022-09-28T22:54:26.081Z,8.88
2022-09-28T22:56:53.352Z,8.60
2022-09-28T22:59:20.647Z,8.07
2022-09-28T23:01:47.965Z,8.40
2022-09-28T23:04:15.325Z,9.18
2022-09-28T23:06:42.473Z,8.85
2022-09-28T23:09:09.611Z,8.85
2022-09-28T23:11:37.465Z,8.10
2022-09-28T23:14:04.658Z,9.35
2022-09-28T23:16:31.903Z,9.65
2022-09-28T23:18:59.294Z,9.15
2022-09-28T23:21:27.324Z,8.95
2022-09-28T23:23:58.998Z,9.77
2022-09-28T23:26:27.368Z,8.95
2022-09-28T23:28:54.553Z,9.82
2022-09-28T23:31:23.639Z,9.02
2022-09-28T23:33:50.981Z,9.05
2022-09-28T23:36:18.701Z,8.05
2022-09-28T23:38:45.975Z,8.27
2022-09-28T23:41:13.209Z,8.65
2022-09-28T23:43:40.357Z,8.82
2022-09-28T23:46:07.732Z,8.50
2022-09-28T23:48:35.157Z,8.48
2022-09-28T23:51:02.814Z,8.10
2022-09-28T23:53:32.337Z,9.30
2022-09-28T23:55:59.525Z,8.23
2022-09-28T23:58:27.039Z,9.02
